sensor_id;sensor_type;location;lat;lon;timestamp;P1;durP1;ratioP1;P2;durP2;ratioP2
1402;SDS011;696;48.546;9.896;2023-09-18T00:01:37;3.25;;;2.70;;
1402;SDS011;696;48.546;9.896;2023-09-18T00:04:04;6.43;;;2.88;;
1402;SDS011;696;48.546;9.896;2023-09-18T00:06:30;6.20;;;2.42;;
1402;SDS011;696;48.546;9.896;2023-09-18T00:08:56;3.13;;;2.42;;
1402;SDS011;696;48.546;9.896;2023-09-18T00:11:21;4.28;;;2.58;;
1402;SDS011;696;48.546;9.896;2023-09-18T00:13:46;3.42;;;2.60;;
1402;SDS011;696;48.546;9.896;2023-09-18T00:16:12;4.45;;;2.90;;
1402;SDS011;696;48.546;9.896;2023-09-18T00:18:38;4.90;;;2.78;;
1402;SDS011;696;48.546;9.896;2023-09-18T00:21:03;3.83;;;2.65;;
1402;SDS011;696;48.546;9.896;2023-09-18T00:23:28;3.05;;;2.33;;
1402;SDS011;696;48.546;9.896;2023-09-18T00:25:54;3.50;;;2.50;;
1402;SDS011;696;48.546;9.896;2023-09-18T00:28:19;5.63;;;2.65;;
1402;SDS011;696;48.546;9.896;2023-09-18T00:30:48;2.92;;;2.50;;
1402;SDS011;696;48.546;9.896;2023-09-18T00:33:15;5.38;;;2.35;;
1402;SDS011;696;48.546;9.896;2023-09-18T00:35:44;4.63;;;2.75;;
1402;SDS011;696;48.546;9.896;2023-09-18T00:38:10;11.25;;;2.17;;
1402;SDS011;696;48.546;9.896;2023-09-18T00:40:35;3.47;;;2.67;;
1402;SDS011;696;48.546;9.896;2023-09-18T00:43:01;4.03;;;2.50;;
1402;SDS011;696;48.546;9.896;2023-09-18T00:45:27;2.63;;;2.30;;
1402;SDS011;696;48.546;9.896;2023-09-18T00:47:52;5.00;;;2.40;;
1402;SDS011;696;48.546;9.896;2023-09-18T00:50:19;3.00;;;2.47;;
1402;SDS011;696;48.546;9.896;2023-09-18T00:52:44;7.53;;;2.70;;
1402;SDS011;696;48.546;9.896;2023-09-18T00:55:10;2.83;;;2.50;;
1402;SDS011;696;48.546;9.896;2023-09-18T00:57:35;7.07;;;2.50;;
1402;SDS011;696;48.546;9.896;2023-09-18T01:00:02;5.70;;;2.85;;
1402;SDS011;696;48.546;9.896;2023-09-18T01:02:30;5.82;;;2.72;;
1402;SDS011;696;48.546;9.896;2023-09-18T01:04:56;7.40;;;2.28;;
1402;SDS011;696;48.546;9.896;2023-09-18T01:07:23;3.63;;;2.70;;
1402;SDS011;696;48.546;9.896;2023-09-18T01:09:48;3.53;;;2.40;;
1402;SDS011;696;48.546;9.896;2023-09-18T01:12:17;4.45;;;3.00;;
1402;SDS011;696;48.546;9.896;2023-09-18T01:14:56;4.10;;;3.10;;
1402;SDS011;696;48.546;9.896;2023-09-18T01:17:25;2.88;;;2.42;;
1402;SDS011;696;48.546;9.896;2023-09-18T01:19:51;3.42;;;2.65;;
1402;SDS011;696;48.546;9.896;2023-09-18T01:22:17;3.60;;;2.72;;
1402;SDS011;696;48.546;9.896;2023-09-18T01:24:44;3.08;;;2.60;;
1402;SDS011;696;48.546;9.896;2023-09-18T01:27:11;2.55;;;2.15;;
1402;SDS011;696;48.546;9.896;2023-09-18T01:29:42;4.47;;;3.03;;
1402;SDS011;696;48.546;9.896;2023-09-18T01:32:07;3.97;;;3.08;;
1402;SDS011;696;48.546;9.896;2023-09-18T01:34:33;2.83;;;2.42;;
1402;SDS011;696;48.546;9.896;2023-09-18T01:37:06;3.78;;;2.95;;
1402;SDS011;696;48.546;9.896;2023-09-18T01:39:33;4.53;;;2.80;;
1402;SDS011;696;48.546;9.896;2023-09-18T01:41:59;4.85;;;2.90;;
1402;SDS011;696;48.546;9.896;2023-09-18T01:44:26;3.65;;;2.78;;
1402;SDS011;696;48.546;9.896;2023-09-18T01:46:52;6.43;;;2.95;;
1402;SDS011;696;48.546;9.896;2023-09-18T01:49:31;3.75;;;2.80;;
1402;SDS011;696;48.546;9.896;2023-09-18T01:52:00;3.15;;;2.45;;
1402;SDS011;696;48.546;9.896;2023-09-18T01:54:26;4.75;;;3.15;;
1402;SDS011;696;48.546;9.896;2023-09-18T01:56:52;8.73;;;3.33;;
1402;SDS011;696;48.546;9.896;2023-09-18T01:59:18;9.30;;;3.40;;
1402;SDS011;696;48.546;9.896;2023-09-18T02:01:44;5.22;;;3.05;;
1402;SDS011;696;48.546;9.896;2023-09-18T02:04:09;3.88;;;3.10;;
1402;SDS011;696;48.546;9.896;2023-09-18T02:06:35;5.38;;;3.45;;
1402;SDS011;696;48.546;9.896;2023-09-18T02:09:00;8.50;;;3.50;;
1402;SDS011;696;48.546;9.896;2023-09-18T02:11:26;7.88;;;3.92;;
1402;SDS011;696;48.546;9.896;2023-09-18T02:13:52;5.93;;;3.42;;
1402;SDS011;696;48.546;9.896;2023-09-18T02:16:17;11.55;;;4.47;;
1402;SDS011;696;48.546;9.896;2023-09-18T02:18:47;4.88;;;3.47;;
1402;SDS011;696;48.546;9.896;2023-09-18T02:21:18;5.30;;;3.45;;
1402;SDS011;696;48.546;9.896;2023-09-18T02:23:50;6.63;;;3.95;;
1402;SDS011;696;48.546;9.896;2023-09-18T02:26:16;4.68;;;3.45;;
1402;SDS011;696;48.546;9.896;2023-09-18T02:28:45;4.78;;;3.00;;
1402;SDS011;696;48.546;9.896;2023-09-18T02:31:10;6.00;;;3.30;;
1402;SDS011;696;48.546;9.896;2023-09-18T02:33:36;4.70;;;3.28;;
1402;SDS011;696;48.546;9.896;2023-09-18T02:36:02;6.82;;;4.20;;
1402;SDS011;696;48.546;9.896;2023-09-18T02:38:28;7.70;;;4.30;;
1402;SDS011;696;48.546;9.896;2023-09-18T02:40:55;6.38;;;3.60;;
1402;SDS011;696;48.546;9.896;2023-09-18T02:43:22;5.25;;;4.03;;
1402;SDS011;696;48.546;9.896;2023-09-18T02:45:47;5.13;;;3.83;;
1402;SDS011;696;48.546;9.896;2023-09-18T02:48:13;4.80;;;3.80;;
1402;SDS011;696;48.546;9.896;2023-09-18T02:50:38;5.28;;;3.78;;
1402;SDS011;696;48.546;9.896;2023-09-18T02:53:05;5.75;;;3.53;;
1402;SDS011;696;48.546;9.896;2023-09-18T02:55:34;6.50;;;3.35;;
1402;SDS011;696;48.546;9.896;2023-09-18T02:57:59;6.18;;;3.38;;
1402;SDS011;696;48.546;9.896;2023-09-18T03:00:25;6.80;;;3.67;;
1402;SDS011;696;48.546;9.896;2023-09-18T03:02:50;5.05;;;3.55;;
1402;SDS011;696;48.546;9.896;2023-09-18T03:05:15;6.25;;;3.63;;
1402;SDS011;696;48.546;9.896;2023-09-18T03:07:41;5.30;;;3.20;;
1402;SDS011;696;48.546;9.896;2023-09-18T03:10:07;7.50;;;4.07;;
1402;SDS011;696;48.546;9.896;2023-09-18T03:12:33;7.55;;;3.60;;
1402;SDS011;696;48.546;9.896;2023-09-18T03:14:59;4.60;;;3.78;;
1402;SDS011;696;48.546;9.896;2023-09-18T03:17:24;7.85;;;4.10;;
1402;SDS011;696;48.546;9.896;2023-09-18T03:19:50;7.75;;;4.75;;
1402;SDS011;696;48.546;9.896;2023-09-18T03:22:15;5.20;;;3.72;;
1402;SDS011;696;48.546;9.896;2023-09-18T03:24:41;8.75;;;4.15;;
1402;SDS011;696;48.546;9.896;2023-09-18T03:27:06;4.75;;;3.97;;
1402;SDS011;696;48.546;9.896;2023-09-18T03:29:31;5.43;;;4.25;;
1402;SDS011;696;48.546;9.896;2023-09-18T03:31:57;10.10;;;4.60;;
1402;SDS011;696;48.546;9.896;2023-09-18T03:34:24;6.43;;;4.47;;
1402;SDS011;696;48.546;9.896;2023-09-18T03:36:52;7.57;;;4.88;;
1402;SDS011;696;48.546;9.896;2023-09-18T03:39:17;10.80;;;4.63;;
1402;SDS011;696;48.546;9.896;2023-09-18T03:41:43;6.78;;;4.25;;
1402;SDS011;696;48.546;9.896;2023-09-18T03:44:08;7.78;;;4.40;;
1402;SDS011;696;48.546;9.896;2023-09-18T03:46:35;10.45;;;4.60;;
1402;SDS011;696;48.546;9.896;2023-09-18T03:49:01;8.15;;;4.43;;
1402;SDS011;696;48.546;9.896;2023-09-18T03:51:27;8.27;;;4.60;;
1402;SDS011;696;48.546;9.896;2023-09-18T03:53:54;8.15;;;4.30;;
1402;SDS011;696;48.546;9.896;2023-09-18T03:56:20;9.90;;;4.20;;
1402;SDS011;696;48.546;9.896;2023-09-18T03:58:45;7.00;;;4.50;;
1402;SDS011;696;48.546;9.896;2023-09-18T04:01:14;6.70;;;4.50;;
1402;SDS011;696;48.546;9.896;2023-09-18T04:03:39;9.82;;;4.40;;
1402;SDS011;696;48.546;9.896;2023-09-18T04:06:05;6.85;;;4.32;;
1402;SDS011;696;48.546;9.896;2023-09-18T04:08:31;7.20;;;4.68;;
1402;SDS011;696;48.546;9.896;2023-09-18T04:10:57;10.65;;;5.13;;
1402;SDS011;696;48.546;9.896;2023-09-18T04:13:23;9.13;;;4.47;;
1402;SDS011;696;48.546;9.896;2023-09-18T04:15:48;5.63;;;3.65;;
1402;SDS011;696;48.546;9.896;2023-09-18T04:18:14;6.25;;;3.88;;
1402;SDS011;696;48.546;9.896;2023-09-18T04:20:39;6.70;;;4.40;;
1402;SDS011;696;48.546;9.896;2023-09-18T04:23:24;7.63;;;3.83;;
1402;SDS011;696;48.546;9.896;2023-09-18T04:25:53;5.22;;;3.58;;
1402;SDS011;696;48.546;9.896;2023-09-18T04:28:19;7.40;;;3.90;;
1402;SDS011;696;48.546;9.896;2023-09-18T04:30:47;6.57;;;3.25;;
1402;SDS011;696;48.546;9.896;2023-09-18T04:33:13;8.20;;;3.10;;
1402;SDS011;696;48.546;9.896;2023-09-18T04:35:39;5.78;;;3.35;;
1402;SDS011;696;48.546;9.896;2023-09-18T04:38:06;4.50;;;3.22;;
1402;SDS011;696;48.546;9.896;2023-09-18T04:40:32;6.57;;;3.63;;
1402;SDS011;696;48.546;9.896;2023-09-18T04:42:58;4.03;;;3.30;;
1402;SDS011;696;48.546;9.896;2023-09-18T04:45:23;8.45;;;3.55;;
1402;SDS011;696;48.546;9.896;2023-09-18T04:47:50;5.43;;;3.42;;
1402;SDS011;696;48.546;9.896;2023-09-18T04:50:15;5.47;;;3.03;;
1402;SDS011;696;48.546;9.896;2023-09-18T04:52:40;3.53;;;3.22;;
1402;SDS011;696;48.546;9.896;2023-09-18T04:55:06;6.32;;;3.03;;
1402;SDS011;696;48.546;9.896;2023-09-18T04:57:31;6.07;;;2.95;;
1402;SDS011;696;48.546;9.896;2023-09-18T04:59:57;7.13;;;3.15;;
1402;SDS011;696;48.546;9.896;2023-09-18T05:02:22;7.28;;;2.97;;
1402;SDS011;696;48.546;9.896;2023-09-18T05:04:50;6.05;;;3.35;;
1402;SDS011;696;48.546;9.896;2023-09-18T05:07:15;4.95;;;3.20;;
1402;SDS011;696;48.546;9.896;2023-09-18T05:09:41;5.22;;;3.25;;
1402;SDS011;696;48.546;9.896;2023-09-18T05:12:06;4.53;;;3.15;;
1402;SDS011;696;48.546;9.896;2023-09-18T05:14:38;4.30;;;2.97;;
1402;SDS011;696;48.546;9.896;2023-09-18T05:17:03;4.97;;;3.67;;
1402;SDS011;696;48.546;9.896;2023-09-18T05:19:29;5.75;;;3.80;;
1402;SDS011;696;48.546;9.896;2023-09-18T05:21:54;7.68;;;4.22;;
1402;SDS011;696;48.546;9.896;2023-09-18T05:24:19;4.93;;;3.50;;
1402;SDS011;696;48.546;9.896;2023-09-18T05:26:51;8.55;;;4.18;;
1402;SDS011;696;48.546;9.896;2023-09-18T05:29:18;5.55;;;3.83;;
1402;SDS011;696;48.546;9.896;2023-09-18T05:31:43;4.68;;;3.42;;
1402;SDS011;696;48.546;9.896;2023-09-18T05:34:10;5.95;;;3.42;;
1402;SDS011;696;48.546;9.896;2023-09-18T05:36:36;8.50;;;5.28;;
1402;SDS011;696;48.546;9.896;2023-09-18T05:39:01;9.70;;;6.20;;
1402;SDS011;696;48.546;9.896;2023-09-18T05:41:28;14.20;;;4.95;;
1402;SDS011;696;48.546;9.896;2023-09-18T05:43:54;7.35;;;4.55;;
1402;SDS011;696;48.546;9.896;2023-09-18T05:46:20;9.27;;;4.38;;
1402;SDS011;696;48.546;9.896;2023-09-18T05:48:45;10.50;;;4.22;;
1402;SDS011;696;48.546;9.896;2023-09-18T05:51:10;7.88;;;4.22;;
1402;SDS011;696;48.546;9.896;2023-09-18T05:53:36;5.05;;;3.50;;
1402;SDS011;696;48.546;9.896;2023-09-18T05:56:03;15.35;;;3.65;;
1402;SDS011;696;48.546;9.896;2023-09-18T05:58:33;5.72;;;2.95;;
1402;SDS011;696;48.546;9.896;2023-09-18T06:00:58;7.28;;;2.88;;
1402;SDS011;696;48.546;9.896;2023-09-18T06:03:25;5.65;;;3.17;;
1402;SDS011;696;48.546;9.896;2023-09-18T06:05:55;5.80;;;2.90;;
1402;SDS011;696;48.546;9.896;2023-09-18T06:08:21;5.88;;;2.75;;
1402;SDS011;696;48.546;9.896;2023-09-18T06:10:46;9.55;;;3.15;;
1402;SDS011;696;48.546;9.896;2023-09-18T06:13:12;3.40;;;2.50;;
1402;SDS011;696;48.546;9.896;2023-09-18T06:15:37;5.93;;;2.95;;
1402;SDS011;696;48.546;9.896;2023-09-18T06:18:02;6.15;;;2.63;;
1402;SDS011;696;48.546;9.896;2023-09-18T06:20:28;4.07;;;2.47;;
1402;SDS011;696;48.546;9.896;2023-09-18T06:22:54;7.45;;;3.13;;
1402;SDS011;696;48.546;9.896;2023-09-18T06:25:19;5.22;;;2.75;;
1402;SDS011;696;48.546;9.896;2023-09-18T06:27:45;4.80;;;2.75;;
1402;SDS011;696;48.546;9.896;2023-09-18T06:30:11;4.25;;;2.65;;
1402;SDS011;696;48.546;9.896;2023-09-18T06:32:36;12.18;;;2.83;;
1402;SDS011;696;48.546;9.896;2023-09-18T06:35:02;5.68;;;2.83;;
1402;SDS011;696;48.546;9.896;2023-09-18T06:37:27;5.38;;;2.75;;
1402;SDS011;696;48.546;9.896;2023-09-18T06:39:53;11.00;;;3.00;;
1402;SDS011;696;48.546;9.896;2023-09-18T06:42:18;6.75;;;3.33;;
1402;SDS011;696;48.546;9.896;2023-09-18T06:44:44;5.25;;;2.85;;
1402;SDS011;696;48.546;9.896;2023-09-18T06:47:09;8.07;;;3.00;;
1402;SDS011;696;48.546;9.896;2023-09-18T06:49:35;7.57;;;3.38;;
1402;SDS011;696;48.546;9.896;2023-09-18T06:52:00;8.52;;;3.15;;
1402;SDS011;696;48.546;9.896;2023-09-18T06:54:25;5.90;;;3.65;;
1402;SDS011;696;48.546;9.896;2023-09-18T06:56:51;19.60;;;4.28;;
1402;SDS011;696;48.546;9.896;2023-09-18T06:59:16;6.45;;;3.85;;
1402;SDS011;696;48.546;9.896;2023-09-18T07:01:41;7.03;;;3.53;;
1402;SDS011;696;48.546;9.896;2023-09-18T07:04:07;4.25;;;2.88;;
1402;SDS011;696;48.546;9.896;2023-09-18T07:06:33;5.07;;;2.75;;
1402;SDS011;696;48.546;9.896;2023-09-18T07:08:58;6.88;;;3.90;;
1402;SDS011;696;48.546;9.896;2023-09-18T07:11:24;15.98;;;3.88;;
1402;SDS011;696;48.546;9.896;2023-09-18T07:13:49;5.63;;;3.53;;
1402;SDS011;696;48.546;9.896;2023-09-18T07:16:15;5.65;;;3.65;;
1402;SDS011;696;48.546;9.896;2023-09-18T07:18:40;8.13;;;3.30;;
1402;SDS011;696;48.546;9.896;2023-09-18T07:21:07;6.95;;;3.85;;
1402;SDS011;696;48.546;9.896;2023-09-18T07:23:32;6.22;;;3.20;;
1402;SDS011;696;48.546;9.896;2023-09-18T07:26:01;5.80;;;3.10;;
1402;SDS011;696;48.546;9.896;2023-09-18T07:28:26;10.15;;;3.80;;
1402;SDS011;696;48.546;9.896;2023-09-18T07:30:52;4.15;;;3.05;;
1402;SDS011;696;48.546;9.896;2023-09-18T07:33:19;4.50;;;2.63;;
1402;SDS011;696;48.546;9.896;2023-09-18T07:35:48;6.13;;;2.60;;
1402;SDS011;696;48.546;9.896;2023-09-18T07:38:14;5.53;;;3.45;;
1402;SDS011;696;48.546;9.896;2023-09-18T07:40:40;9.35;;;3.00;;
1402;SDS011;696;48.546;9.896;2023-09-18T07:43:05;8.68;;;3.00;;
1402;SDS011;696;48.546;9.896;2023-09-18T07:45:31;6.47;;;3.15;;
1402;SDS011;696;48.546;9.896;2023-09-18T07:47:56;5.15;;;3.05;;
1402;SDS011;696;48.546;9.896;2023-09-18T07:50:21;9.00;;;3.15;;
1402;SDS011;696;48.546;9.896;2023-09-18T07:52:47;9.45;;;3.30;;
1402;SDS011;696;48.546;9.896;2023-09-18T07:55:12;10.82;;;2.45;;
1402;SDS011;696;48.546;9.896;2023-09-18T07:57:37;7.57;;;2.17;;
1402;SDS011;696;48.546;9.896;2023-09-18T08:00:03;5.10;;;2.10;;
1402;SDS011;696;48.546;9.896;2023-09-18T08:02:40;3.90;;;2.35;;
1402;SDS011;696;48.546;9.896;2023-09-18T08:05:07;8.40;;;2.10;;
1402;SDS011;696;48.546;9.896;2023-09-18T08:07:33;12.10;;;2.60;;
1402;SDS011;696;48.546;9.896;2023-09-18T08:10:00;5.82;;;2.05;;
1402;SDS011;696;48.546;9.896;2023-09-18T08:12:25;4.03;;;1.13;;
1402;SDS011;696;48.546;9.896;2023-09-18T08:14:51;10.18;;;1.95;;
1402;SDS011;696;48.546;9.896;2023-09-18T08:17:16;3.72;;;1.63;;
1402;SDS011;696;48.546;9.896;2023-09-18T08:19:41;4.50;;;1.05;;
1402;SDS011;696;48.546;9.896;2023-09-18T08:22:09;3.63;;;1.20;;
1402;SDS011;696;48.546;9.896;2023-09-18T08:24:36;4.28;;;1.25;;
1402;SDS011;696;48.546;9.896;2023-09-18T08:27:02;4.68;;;1.42;;
1402;SDS011;696;48.546;9.896;2023-09-18T08:29:28;6.55;;;1.50;;
1402;SDS011;696;48.546;9.896;2023-09-18T08:31:54;2.65;;;1.17;;
1402;SDS011;696;48.546;9.896;2023-09-18T08:34:19;3.00;;;1.25;;
1402;SDS011;696;48.546;9.896;2023-09-18T08:36:44;4.10;;;1.20;;
1402;SDS011;696;48.546;9.896;2023-09-18T08:39:10;4.10;;;1.25;;
1402;SDS011;696;48.546;9.896;2023-09-18T08:41:38;5.85;;;1.23;;
1402;SDS011;696;48.546;9.896;2023-09-18T08:44:05;8.75;;;1.20;;
1402;SDS011;696;48.546;9.896;2023-09-18T08:46:32;7.28;;;1.42;;
1402;SDS011;696;48.546;9.896;2023-09-18T08:48:59;3.85;;;1.20;;
1402;SDS011;696;48.546;9.896;2023-09-18T08:51:25;4.38;;;1.25;;
1402;SDS011;696;48.546;9.896;2023-09-18T08:53:51;1.98;;;0.93;;
1402;SDS011;696;48.546;9.896;2023-09-18T08:56:17;6.10;;;1.38;;
1402;SDS011;696;48.546;9.896;2023-09-18T08:58:43;5.60;;;1.33;;
1402;SDS011;696;48.546;9.896;2023-09-18T09:01:08;2.25;;;0.93;;
1402;SDS011;696;48.546;9.896;2023-09-18T09:03:41;2.65;;;0.80;;
1402;SDS011;696;48.546;9.896;2023-09-18T09:06:08;2.47;;;0.90;;
1402;SDS011;696;48.546;9.896;2023-09-18T09:08:34;3.10;;;1.10;;
1402;SDS011;696;48.546;9.896;2023-09-18T09:11:00;2.83;;;0.90;;
1402;SDS011;696;48.546;9.896;2023-09-18T09:13:25;13.35;;;1.48;;
1402;SDS011;696;48.546;9.896;2023-09-18T09:15:55;2.00;;;1.08;;
1402;SDS011;696;48.546;9.896;2023-09-18T09:18:25;5.03;;;0.82;;
1402;SDS011;696;48.546;9.896;2023-09-18T09:20:53;1.70;;;0.82;;
1402;SDS011;696;48.546;9.896;2023-09-18T09:23:23;7.07;;;1.13;;
1402;SDS011;696;48.546;9.896;2023-09-18T09:25:50;1.83;;;0.88;;
1402;SDS011;696;48.546;9.896;2023-09-18T09:28:15;3.60;;;0.70;;
1402;SDS011;696;48.546;9.896;2023-09-18T09:30:41;2.83;;;0.70;;
1402;SDS011;696;48.546;9.896;2023-09-18T09:33:09;1.25;;;0.90;;
1402;SDS011;696;48.546;9.896;2023-09-18T09:35:37;1.40;;;0.52;;
1402;SDS011;696;48.546;9.896;2023-09-18T09:38:07;0.68;;;0.63;;
1402;SDS011;696;48.546;9.896;2023-09-18T09:40:34;3.30;;;0.32;;
1402;SDS011;696;48.546;9.896;2023-09-18T09:43:00;1.23;;;0.68;;
1402;SDS011;696;48.546;9.896;2023-09-18T09:45:26;3.40;;;0.40;;
1402;SDS011;696;48.546;9.896;2023-09-18T09:47:54;3.50;;;0.75;;
1402;SDS011;696;48.546;9.896;2023-09-18T09:50:20;8.20;;;0.77;;
1402;SDS011;696;48.546;9.896;2023-09-18T09:52:47;2.13;;;0.52;;
1402;SDS011;696;48.546;9.896;2023-09-18T09:55:33;0.55;;;0.50;;
1402;SDS011;696;48.546;9.896;2023-09-18T09:58:03;1.05;;;0.55;;
1402;SDS011;696;48.546;9.896;2023-09-18T10:00:37;2.63;;;0.50;;
1402;SDS011;696;48.546;9.896;2023-09-18T10:03:08;0.30;;;0.30;;
1402;SDS011;696;48.546;9.896;2023-09-18T10:05:38;0.50;;;0.50;;
1402;SDS011;696;48.546;9.896;2023-09-18T10:08:08;0.38;;;0.28;;
1402;SDS011;696;48.546;9.896;2023-09-18T10:11:09;0.22;;;0.22;;
1402;SDS011;696;48.546;9.896;2023-09-18T10:13:34;1.88;;;0.70;;
1402;SDS011;696;48.546;9.896;2023-09-18T10:16:05;1.30;;;0.20;;
1402;SDS011;696;48.546;9.896;2023-09-18T10:18:35;1.50;;;0.47;;
1402;SDS011;696;48.546;9.896;2023-09-18T10:21:06;2.60;;;0.80;;
1402;SDS011;696;48.546;9.896;2023-09-18T10:23:54;0.30;;;0.30;;
1402;SDS011;696;48.546;9.896;2023-09-18T10:26:25;0.45;;;0.43;;
1402;SDS011;696;48.546;9.896;2023-09-18T10:28:54;4.85;;;0.52;;
1402;SDS011;696;48.546;9.896;2023-09-18T10:31:23;3.13;;;0.70;;
1402;SDS011;696;48.546;9.896;2023-09-18T10:33:51;0.40;;;0.40;;
1402;SDS011;696;48.546;9.896;2023-09-18T10:36:18;1.88;;;0.50;;
1402;SDS011;696;48.546;9.896;2023-09-18T10:38:45;0.30;;;0.30;;
1402;SDS011;696;48.546;9.896;2023-09-18T10:41:15;0.98;;;0.75;;
1402;SDS011;696;48.546;9.896;2023-09-18T10:43:43;2.22;;;0.57;;
1402;SDS011;696;48.546;9.896;2023-09-18T10:46:09;1.00;;;0.60;;
1402;SDS011;696;48.546;9.896;2023-09-18T10:48:35;1.08;;;0.50;;
1402;SDS011;696;48.546;9.896;2023-09-18T10:51:00;1.27;;;0.50;;
1402;SDS011;696;48.546;9.896;2023-09-18T10:53:31;1.50;;;0.50;;
1402;SDS011;696;48.546;9.896;2023-09-18T10:55:57;0.38;;;0.38;;
1402;SDS011;696;48.546;9.896;2023-09-18T10:58:23;3.13;;;0.73;;
1402;SDS011;696;48.546;9.896;2023-09-18T11:00:53;2.95;;;0.70;;
1402;SDS011;696;48.546;9.896;2023-09-18T11:03:21;1.75;;;0.50;;
1402;SDS011;696;48.546;9.896;2023-09-18T11:06:02;0.75;;;0.50;;
1402;SDS011;696;48.546;9.896;2023-09-18T11:11:28;3.25;;;0.70;;
1402;SDS011;696;48.546;9.896;2023-09-18T11:13:51;0.70;;;0.45;;
1402;SDS011;696;48.546;9.896;2023-09-18T11:18:51;1.35;;;0.70;;
1402;SDS011;696;48.546;9.896;2023-09-18T11:21:17;1.92;;;0.88;;
1402;SDS011;696;48.546;9.896;2023-09-18T11:23:43;2.92;;;0.80;;
1402;SDS011;696;48.546;9.896;2023-09-18T11:26:14;2.30;;;0.75;;
1402;SDS011;696;48.546;9.896;2023-09-18T11:28:40;0.70;;;0.63;;
1402;SDS011;696;48.546;9.896;2023-09-18T11:31:07;0.65;;;0.55;;
1402;SDS011;696;48.546;9.896;2023-09-18T11:33:37;5.13;;;0.82;;
1402;SDS011;696;48.546;9.896;2023-09-18T11:36:07;3.13;;;0.88;;
1402;SDS011;696;48.546;9.896;2023-09-18T11:41:27;1.42;;;1.23;;
1402;SDS011;696;48.546;9.896;2023-09-18T11:44:40;2.45;;;1.30;;
1402;SDS011;696;48.546;9.896;2023-09-18T11:46:47;2.75;;;1.48;;
1402;SDS011;696;48.546;9.896;2023-09-18T11:49:19;3.38;;;0.90;;
1402;SDS011;696;48.546;9.896;2023-09-18T11:51:46;2.67;;;1.10;;
1402;SDS011;696;48.546;9.896;2023-09-18T11:54:12;3.78;;;1.23;;
1402;SDS011;696;48.546;9.896;2023-09-18T11:56:39;2.28;;;1.23;;
1402;SDS011;696;48.546;9.896;2023-09-18T11:59:04;1.88;;;1.23;;
1402;SDS011;696;48.546;9.896;2023-09-18T12:01:31;2.97;;;1.25;;
1402;SDS011;696;48.546;9.896;2023-09-18T12:04:01;2.05;;;1.00;;
1402;SDS011;696;48.546;9.896;2023-09-18T12:06:27;2.55;;;0.93;;
1402;SDS011;696;48.546;9.896;2023-09-18T12:08:52;2.45;;;1.33;;
1402;SDS011;696;48.546;9.896;2023-09-18T12:11:18;7.32;;;1.23;;
1402;SDS011;696;48.546;9.896;2023-09-18T12:13:45;1.63;;;1.23;;
1402;SDS011;696;48.546;9.896;2023-09-18T12:16:13;3.20;;;1.58;;
1402;SDS011;696;48.546;9.896;2023-09-18T12:18:44;2.50;;;1.60;;
1402;SDS011;696;48.546;9.896;2023-09-18T12:21:10;2.92;;;1.67;;
1402;SDS011;696;48.546;9.896;2023-09-18T12:23:39;2.65;;;1.58;;
1402;SDS011;696;48.546;9.896;2023-09-18T12:26:05;4.07;;;2.28;;
1402;SDS011;696;48.546;9.896;2023-09-18T12:28:35;3.97;;;1.90;;
1402;SDS011;696;48.546;9.896;2023-09-18T12:31:00;3.90;;;2.42;;
1402;SDS011;696;48.546;9.896;2023-09-18T12:33:30;7.47;;;1.95;;
1402;SDS011;696;48.546;9.896;2023-09-18T12:35:59;5.70;;;2.55;;
1402;SDS011;696;48.546;9.896;2023-09-18T12:38:24;3.38;;;1.90;;
1402;SDS011;696;48.546;9.896;2023-09-18T12:40:52;3.28;;;2.05;;
1402;SDS011;696;48.546;9.896;2023-09-18T12:43:18;4.10;;;1.85;;
1402;SDS011;696;48.546;9.896;2023-09-18T12:45:44;5.25;;;2.10;;
1402;SDS011;696;48.546;9.896;2023-09-18T12:48:11;3.78;;;2.03;;
1402;SDS011;696;48.546;9.896;2023-09-18T12:50:37;2.95;;;1.80;;
1402;SDS011;696;48.546;9.896;2023-09-18T12:53:13;4.65;;;2.00;;
1402;SDS011;696;48.546;9.896;2023-09-18T12:55:40;1.60;;;1.42;;
1402;SDS011;696;48.546;9.896;2023-09-18T12:58:09;2.67;;;1.35;;
1402;SDS011;696;48.546;9.896;2023-09-18T13:00:35;3.50;;;1.55;;
1402;SDS011;696;48.546;9.896;2023-09-18T13:03:01;1.70;;;1.20;;
1402;SDS011;696;48.546;9.896;2023-09-18T13:05:29;6.57;;;1.65;;
1402;SDS011;696;48.546;9.896;2023-09-18T13:08:00;1.30;;;0.95;;
1402;SDS011;696;48.546;9.896;2023-09-18T13:10:27;1.42;;;1.10;;
1402;SDS011;696;48.546;9.896;2023-09-18T13:12:52;1.95;;;1.17;;
1402;SDS011;696;48.546;9.896;2023-09-18T13:15:30;2.88;;;1.27;;
1402;SDS011;696;48.546;9.896;2023-09-18T13:17:57;2.60;;;1.00;;
1402;SDS011;696;48.546;9.896;2023-09-18T13:20:26;2.55;;;1.70;;
1402;SDS011;696;48.546;9.896;2023-09-18T13:22:57;2.40;;;1.15;;
1402;SDS011;696;48.546;9.896;2023-09-18T13:25:24;6.00;;;1.83;;
1402;SDS011;696;48.546;9.896;2023-09-18T13:27:51;3.20;;;1.80;;
1402;SDS011;696;48.546;9.896;2023-09-18T13:30:17;6.65;;;1.65;;
1402;SDS011;696;48.546;9.896;2023-09-18T13:32:45;2.13;;;1.73;;
1402;SDS011;696;48.546;9.896;2023-09-18T13:35:13;2.30;;;1.70;;
1402;SDS011;696;48.546;9.896;2023-09-18T13:37:39;6.10;;;2.33;;
1402;SDS011;696;48.546;9.896;2023-09-18T13:40:05;3.40;;;1.92;;
1402;SDS011;696;48.546;9.896;2023-09-18T13:42:37;6.82;;;2.72;;
1402;SDS011;696;48.546;9.896;2023-09-18T13:45:03;5.10;;;1.90;;
1402;SDS011;696;48.546;9.896;2023-09-18T13:47:31;3.30;;;2.22;;
1402;SDS011;696;48.546;9.896;2023-09-18T13:49:57;7.28;;;2.20;;
1402;SDS011;696;48.546;9.896;2023-09-18T13:52:24;3.45;;;1.92;;
1402;SDS011;696;48.546;9.896;2023-09-18T13:54:52;1.48;;;1.38;;
1402;SDS011;696;48.546;9.896;2023-09-18T13:57:18;3.67;;;1.58;;
1402;SDS011;696;48.546;9.896;2023-09-18T13:59:44;3.33;;;1.63;;
1402;SDS011;696;48.546;9.896;2023-09-18T14:02:10;7.38;;;1.77;;
1402;SDS011;696;48.546;9.896;2023-09-18T14:04:36;4.57;;;1.55;;
1402;SDS011;696;48.546;9.896;2023-09-18T14:07:02;2.83;;;1.40;;
1402;SDS011;696;48.546;9.896;2023-09-18T14:09:28;2.05;;;1.25;;
1402;SDS011;696;48.546;9.896;2023-09-18T14:11:53;3.05;;;1.23;;
1402;SDS011;696;48.546;9.896;2023-09-18T14:14:19;2.40;;;1.27;;
1402;SDS011;696;48.546;9.896;2023-09-18T14:16:44;1.30;;;1.20;;
1402;SDS011;696;48.546;9.896;2023-09-18T14:19:09;2.72;;;1.27;;
1402;SDS011;696;48.546;9.896;2023-09-18T14:21:36;1.65;;;1.13;;
1402;SDS011;696;48.546;9.896;2023-09-18T14:24:03;36.90;;;15.32;;
1402;SDS011;696;48.546;9.896;2023-09-18T14:26:28;45.58;;;20.77;;
1402;SDS011;696;48.546;9.896;2023-09-18T14:28:55;10.90;;;5.05;;
1402;SDS011;696;48.546;9.896;2023-09-18T14:31:20;8.50;;;3.53;;
1402;SDS011;696;48.546;9.896;2023-09-18T14:33:46;4.28;;;2.13;;
1402;SDS011;696;48.546;9.896;2023-09-18T14:36:11;2.33;;;1.45;;
1402;SDS011;696;48.546;9.896;2023-09-18T14:38:37;1.67;;;1.23;;
1402;SDS011;696;48.546;9.896;2023-09-18T14:41:02;1.98;;;1.40;;
1402;SDS011;696;48.546;9.896;2023-09-18T14:43:28;2.60;;;1.75;;
1402;SDS011;696;48.546;9.896;2023-09-18T14:45:53;1.80;;;1.30;;
1402;SDS011;696;48.546;9.896;2023-09-18T14:48:23;3.20;;;1.25;;
1402;SDS011;696;48.546;9.896;2023-09-18T14:50:55;1.10;;;1.00;;
1402;SDS011;696;48.546;9.896;2023-09-18T14:53:20;1.52;;;1.15;;
1402;SDS011;696;48.546;9.896;2023-09-18T14:55:46;2.28;;;1.35;;
1402;SDS011;696;48.546;9.896;2023-09-18T14:58:11;2.08;;;1.23;;
1402;SDS011;696;48.546;9.896;2023-09-18T15:00:37;3.50;;;1.48;;
1402;SDS011;696;48.546;9.896;2023-09-18T15:03:02;1.60;;;1.20;;
1402;SDS011;696;48.546;9.896;2023-09-18T15:05:28;3.08;;;1.20;;
1402;SDS011;696;48.546;9.896;2023-09-18T15:07:53;12.50;;;1.15;;
1402;SDS011;696;48.546;9.896;2023-09-18T15:10:19;6.82;;;1.40;;
1402;SDS011;696;48.546;9.896;2023-09-18T15:12:44;2.92;;;1.50;;
1402;SDS011;696;48.546;9.896;2023-09-18T15:15:09;3.55;;;1.30;;
1402;SDS011;696;48.546;9.896;2023-09-18T15:17:35;1.95;;;1.15;;
1402;SDS011;696;48.546;9.896;2023-09-18T15:20:02;3.42;;;1.00;;
1402;SDS011;696;48.546;9.896;2023-09-18T15:22:28;1.05;;;0.90;;
1402;SDS011;696;48.546;9.896;2023-09-18T15:24:53;7.78;;;1.25;;
1402;SDS011;696;48.546;9.896;2023-09-18T15:27:19;2.42;;;0.90;;
1402;SDS011;696;48.546;9.896;2023-09-18T15:29:45;5.10;;;1.23;;
1402;SDS011;696;48.546;9.896;2023-09-18T15:32:10;1.42;;;0.82;;
1402;SDS011;696;48.546;9.896;2023-09-18T15:34:36;1.88;;;0.93;;
1402;SDS011;696;48.546;9.896;2023-09-18T15:37:01;2.10;;;1.13;;